Time;durP1;ratioP1;P1;durP2;ratioP2;P2;SDS_P1;SDS_P2;PMS_P1;PMS_P2;Temp;Humidity;BMP_temperature;BMP_pressure;BME280_temperature;BME280_humidity;BME280_pressure;Samples;Min_cycle;Max_cycle;Signal;HPM_P1;HPM_P2
2022/09/05 00:00:18;;;;;;;;;;;;;;;;;;5041330;28;1317;-73
2022/09/05 00:02:47;;;;;;;;;;;;;;;;;;5043120;28;1219;-73
2022/09/05 00:05:18;;;;;;;;;;;;;;;;;;5041835;28;1244;-73
2022/09/05 00:07:46;;;;;;;;;;;;;;;;;;5039673;28;1906;-73
2022/09/05 00:10:18;;;;;;;;;;;;;;;;;;5024826;28;1267;-73
2022/09/05 00:12:43;;;;;;;;;;;;;;;;;;5042861;28;1336;-73
2022/09/05 00:15:31;;;;;;;;;;;;;;;;;;5042057;28;1269;-73
2022/09/05 00:18:05;;;;;;;;;;;;;;;;;;5044183;28;1235;-73
2022/09/05 00:20:33;;;;;;;;;;;;;;;;;;5040686;28;1311;-72
2022/09/05 00:23:12;;;;;;;;;;;;;;;;;;5034862;28;1277;-73
2022/09/05 00:25:56;;;;;;;;;;;;;;;;;;5043172;28;1255;-73
2022/09/05 00:28:27;;;;;;;;;;;;;;;;;;5041871;28;1544;-73
2022/09/05 00:31:07;;;;;;;;;;;;;;;;;;5041909;28;1337;-76
2022/09/05 00:33:39;;;;;;;;;;;;;;;;;;5043618;28;1093;-75
2022/09/05 00:36:20;;;;;;;;;;;;;;;;;;5040383;28;1263;-75
2022/09/05 00:38:56;;;;;;;;;;;;;;;;;;5038762;28;1373;-76
2022/09/05 00:41:21;;;;;;;;;;;;;;;;;;5040868;28;1237;-76
2022/09/05 00:43:48;;;;;;;;;;;;;;;;;;5041315;28;1247;-76
2022/09/05 00:46:16;;;;;;;;;;;;;;;;;;5040779;28;1976;-75
2022/09/05 00:49:00;;;;;;;;;;;;;;;;;;5024611;28;1291;-75
2022/09/05 00:51:36;;;;;;;;;;;;;;;;;;5042686;28;1272;-76
2022/09/05 00:54:11;;;;;;;;;;;;;;;;;;5041812;28;1318;-75
2022/09/05 00:56:45;;;;;;;;;;;;;;;;;;5039744;28;1349;-76
2022/09/05 00:59:28;;;;;;;;;;;;;;;;;;5042544;28;1354;-75
2022/09/05 01:02:02;;;;;;;;;;;;;;;;;;5034324;28;1500;-75
2022/09/05 01:04:28;;;;;;;;;;;;;;;;;;5041280;28;1354;-75
2022/09/05 01:06:56;;;;;;;;;;;;;;;;;;5042190;28;1957;-75
2022/09/05 01:09:27;;;;;;;;;;;;;;;;;;5040061;28;1368;-74
2022/09/05 01:11:59;;;;;;;;;;;;;;;;;;5041226;28;1277;-73
2022/09/05 01:14:25;;;;;;;;;;;;;;;;;;5042170;28;1322;-73
2022/09/05 01:16:59;;;;;;;;;;;;;;;;;;5039003;28;1301;-73
2022/09/05 01:19:31;;;;;;;;;;;;;;;;;;5039127;28;1272;-73
2022/09/05 01:22:15;;;;;;;;;;;;;;;;;;5039779;28;1293;-73
2022/09/05 01:24:41;;;;;;;;;;;;;;;;;;5039272;28;1290;-73
2022/09/05 01:27:26;;;;;;;;;;;;;;;;;;5042273;28;1890;-73
2022/09/05 01:30:01;;;;;;;;;;;;;;;;;;5040182;28;1278;-73
2022/09/05 01:32:45;;;;;;;;;;;;;;;;;;5033492;28;1544;-73
2022/09/05 01:35:29;;;;;;;;;;;;;;;;;;5041415;28;1310;-73
2022/09/05 01:37:54;;;;;;;;;;;;;;;;;;5041334;28;1271;-73
2022/09/05 01:40:25;;;;;;;;;;;;;;;;;;5040031;28;1308;-76
2022/09/05 01:42:51;;;;;;;;;;;;;;;;;;5038227;28;1073;-76
2022/09/05 01:45:24;;;;;;;;;;;;;;;;;;5037280;28;1316;-76
2022/09/05 01:48:01;;;;;;;;;;;;;;;;;;5035119;28;1894;-76
2022/09/05 01:50:46;;;;;;;;;;;;;;;;;;5035834;28;1903;-76
2022/09/05 01:53:26;;;;;;;;;;;;;;;;;;5041037;28;1279;-76
2022/09/05 01:55:51;;;;;;;;;;;;;;;;;;5041004;28;1318;-72
2022/09/05 01:58:31;;;;;;;;;;;;;;;;;;5041440;28;1362;-73
2022/09/05 02:01:10;;;;;;;;;;;;;;;;;;5038406;28;1262;-72
2022/09/05 02:03:41;;;;;;;;;;;;;;;;;;5034495;28;1527;-72
2022/09/05 02:06:14;;;;;;;;;;;;;;;;;;5039963;28;1901;-72
2022/09/05 02:08:50;;;;;;;;;;;;;;;;;;5038518;28;1247;-73
2022/09/05 02:11:15;;;;;;;;;;;;;;;;;;5038238;28;1529;-76
2022/09/05 02:13:49;;;;;;;;;;;;;;;;;;5022949;28;1411;-76
2022/09/05 02:16:14;;;;;;;;;;;;;;;;;;5038580;28;1353;-73
2022/09/05 02:18:43;;;;;;;;;;;;;;;;;;5041425;28;1306;-73
2022/09/05 02:21:12;;;;;;;;;;;;;;;;;;5037219;28;1275;-73
2022/09/05 02:23:40;;;;;;;;;;;;;;;;;;5042027;28;1256;-77
2022/09/05 02:26:16;;;;;;;;;;;;;;;;;;5039934;28;1953;-77
2022/09/05 02:28:59;;;;;;;;;;;;;;;;;;5041366;28;1270;-77
2022/09/05 02:31:39;;;;;;;;;;;;;;;;;;5039304;28;1325;-77
2022/09/05 02:34:16;;;;;;;;;;;;;;;;;;5023748;28;1567;-75
2022/09/05 02:36:49;;;;;;;;;;;;;;;;;;5032914;28;1345;-75
2022/09/05 02:39:14;;;;;;;;;;;;;;;;;;5020268;28;1288;-75
2022/09/05 02:41:42;;;;;;;;;;;;;;;;;;5041136;28;1331;-75
2022/09/05 02:44:14;;;;;;;;;;;;;;;;;;5038338;28;1209;-74
2022/09/05 02:46:56;;;;;;;;;;;;;;;;;;5039610;28;1960;-75
2022/09/05 02:49:30;;;;;;;;;;;;;;;;;;5035306;28;1303;-75
2022/09/05 02:51:55;;;;;;;;;;;;;;;;;;5035513;28;1336;-74
2022/09/05 02:54:41;;;;;;;;;;;;;;;;;;5038918;28;1239;-75
2022/09/05 02:57:26;;;;;;;;;;;;;;;;;;5041157;28;1295;-75
2022/09/05 02:59:57;;;;;;;;;;;;;;;;;;5040476;28;1220;-75
2022/09/05 03:02:22;;;;;;;;;;;;;;;;;;5039635;28;1242;-74
2022/09/05 03:04:54;;;;;;;;;;;;;;;;;;5046459;28;1252;-74
2022/09/05 03:07:19;;;;;;;;;;;;;;;;;;5044985;28;1902;-74
2022/09/05 03:10:03;;;;;;;;;;;;;;;;;;5044400;28;1301;-74
2022/09/05 03:12:37;;;;;;;;;;;;;;;;;;5026232;28;1916;-74
2022/09/05 03:15:15;;;;;;;;;;;;;;;;;;5045489;28;1423;-74
2022/09/05 03:17:43;;;;;;;;;;;;;;;;;;5044845;28;1248;-75
2022/09/05 03:20:26;;;;;;;;;;;;;;;;;;5046234;28;1085;-75
2022/09/05 03:22:59;;;;;;;;;;;;;;;;;;5048285;28;1561;-75
2022/09/05 03:25:48;;;;;;;;;;;;;;;;;;5042851;28;1311;-75
2022/09/05 03:28:40;;;;;;;;;;;;;;;;;;5046454;28;1949;-73
2022/09/05 03:31:14;;;;;;;;;;;;;;;;;;5013998;28;1359;-73
2022/09/05 03:33:45;;;;;;;;;;;;;;;;;;5051000;28;1259;-73
2022/09/05 03:36:29;;;;;;;;;;;;;;;;;;5050182;28;1298;-73
2022/09/05 03:38:57;;;;;;;;;;;;;;;;;;5054399;28;1266;-73
2022/09/05 03:41:36;;;;;;;;;;;;;;;;;;5046667;28;1248;-75
2022/09/05 03:44:23;;;;;;;;;;;;;;;;;;5030796;28;1309;-73
2022/09/05 03:47:07;;;;;;;;;;;;;;;;;;5011881;28;1940;-73
2022/09/05 03:49:43;;;;;;;;;;;;;;;;;;5052100;28;1255;-75
2022/09/05 03:52:08;;;;;;;;;;;;;;;;;;5049093;28;1224;-75
2022/09/05 03:55:03;;;;;;;;;;;;;;;;;;5053368;28;1290;-74
2022/09/05 03:57:47;;;;;;;;;;;;;;;;;;5036186;28;1319;-72
2022/09/05 04:00:21;;;;;;;;;;;;;;;;;;5050235;28;1228;-73
2022/09/05 04:02:47;;;;;;;;;;;;;;;;;;5050930;28;1025;-74
2022/09/05 04:05:18;;;;;;;;;;;;;;;;;;5050994;28;1364;-74
2022/09/05 04:07:48;;;;;;;;;;;;;;;;;;5043031;28;1914;-74
2022/09/05 04:10:28;;;;;;;;;;;;;;;;;;5045323;28;1366;-74
2022/09/05 04:12:53;;;;;;;;;;;;;;;;;;5045588;28;1235;-74
2022/09/05 04:15:27;;;;;;;;;;;;;;;;;;5041329;28;1388;-74
2022/09/05 04:17:56;;;;;;;;;;;;;;;;;;5043673;28;1254;-74
2022/09/05 04:20:21;;;;;;;;;;;;;;;;;;5042655;28;1321;-75
2022/09/05 04:23:05;;;;;;;;;;;;;;;;;;5042352;28;1351;-74
2022/09/05 04:25:38;;;;;;;;;;;;;;;;;;5039477;28;1249;-75
2022/09/05 04:28:17;;;;;;;;;;;;;;;;;;5043085;28;1898;-74
2022/09/05 04:30:44;;;;;;;;;;;;;;;;;;5038907;28;1293;-73
2022/09/05 04:33:21;;;;;;;;;;;;;;;;;;5041837;28;1224;-72
2022/09/05 04:36:05;;;;;;;;;;;;;;;;;;5036140;28;1307;-72
2022/09/05 04:38:40;;;;;;;;;;;;;;;;;;5042371;28;1239;-73
2022/09/05 04:41:24;;;;;;;;;;;;;;;;;;5038017;28;1591;-75
2022/09/05 04:43:55;;;;;;;;;;;;;;;;;;5020980;28;1546;-74
2022/09/05 04:46:27;;;;;;;;;;;;;;;;;;5040576;28;1894;-73
2022/09/05 04:49:08;;;;;;;;;;;;;;;;;;5040314;28;1400;-73
2022/09/05 04:51:45;;;;;;;;;;;;;;;;;;5051779;22;3813;-65
2022/09/05 04:54:26;;;;;;;;;;;;;;;;;;5040708;28;1216;-65
2022/09/05 04:56:55;;;;;;;;;;;;;;;;;;5041045;28;1208;-65
2022/09/05 04:59:25;;;;;;;;;;;;;;;;;;5042691;28;1239;-64
2022/09/05 05:01:53;;;;;;;;;;;;;;;;;;5025140;28;1311;-64
2022/09/05 05:04:22;;;;;;;;;;;;;;;;;;5019378;28;1240;-63
2022/09/05 05:06:59;;;;;;;;;;;;;;;;;;5014620;28;1914;-64
2022/09/05 05:09:35;;;;;;;;;;;;;;;;;;5019592;28;1622;-65
2022/09/05 05:12:22;;;;;;;;;;;;;;;;;;5017139;28;1367;-63
2022/09/05 05:14:53;;;;;;;;;;;;;;;;;;5019946;28;1164;-64
2022/09/05 05:17:21;;;;;;;;;;;;;;;;;;5021321;28;1586;-64
2022/09/05 05:19:49;;;;;;;;;;;;;;;;;;5020721;28;1425;-64
2022/09/05 05:22:15;;;;;;;;;;;;;;;;;;5020265;28;1308;-64
2022/09/05 05:24:43;;;;;;;;;;;;;;;;;;5020495;28;1193;-64
2022/09/05 05:27:14;;;;;;;;;;;;;;;;;;5002281;28;1969;-64
2022/09/05 05:29:42;;;;;;;;;;;;;;;;;;5002736;28;989;-64
2022/09/05 05:32:07;;;;;;;;;;;;;;;;;;5018928;28;1527;-64
2022/09/05 05:34:34;;;;;;;;;;;;;;;;;;5021589;28;1196;-64
2022/09/05 05:37:02;;;;;;;;;;;;;;;;;;5021579;28;1606;-64
2022/09/05 05:39:28;;;;;;;;;;;;;;;;;;5022426;28;1504;-64
2022/09/05 05:41:54;;;;;;;;;;;;;;;;;;5022093;28;1326;-64
2022/09/05 05:44:25;;;;;;;;;;;;;;;;;;5021986;28;831;-64
2022/09/05 05:47:13;;;;;;;;;;;;;;;;;;5021431;28;1957;-64
2022/09/05 05:49:57;;;;;;;;;;;;;;;;;;5016059;28;2070;-64
2022/09/05 05:52:41;;;;;;;;;;;;;;;;;;5021296;28;1606;-64
2022/09/05 05:55:24;;;;;;;;;;;;;;;;;;5004523;28;1187;-64
2022/09/05 05:58:15;;;;;;;;;;;;;;;;;;5002134;28;1080;-64
2022/09/05 06:00:49;;;;;;;;;;;;;;;;;;4990756;28;1638;-64
2022/09/05 06:03:28;;;;;;;;;;;;;;;;;;5021260;28;1467;-65
2022/09/05 06:06:06;;;;;;;;;;;;;;;;;;5021064;28;1092;-64
2022/09/05 06:08:37;;;;;;;;;;;;;;;;;;5020384;28;1660;-64
2022/09/05 06:11:17;;;;;;;;;;;;;;;;;;5020455;28;1350;-64
2022/09/05 06:13:42;;;;;;;;;;;;;;;;;;5021638;28;841;-64
2022/09/05 06:16:19;;;;;;;;;;;;;;;;;;5019930;28;1540;-64
2022/09/05 06:18:57;;;;;;;;;;;;;;;;;;5021682;28;1148;-64
2022/09/05 06:21:41;;;;;;;;;;;;;;;;;;5021046;28;1578;-64
2022/09/05 06:24:30;;;;;;;;;;;;;;;;;;5021242;28;1442;-64
2022/09/05 06:27:13;;;;;;;;;;;;;;;;;;5002094;28;1914;-64
2022/09/05 06:29:47;;;;;;;;;;;;;;;;;;5006857;28;1542;-63
2022/09/05 06:32:26;;;;;;;;;;;;;;;;;;5019711;28;1429;-64
2022/09/05 06:35:07;;;;;;;;;;;;;;;;;;5020608;28;1207;-64
2022/09/05 06:37:35;;;;;;;;;;;;;;;;;;5019098;28;1480;-63
2022/09/05 06:40:10;;;;;;;;;;;;;;;;;;5019277;28;1227;-64
2022/09/05 06:43:02;;;;;;;;;;;;;;;;;;5019886;28;1658;-64
2022/09/05 06:45:32;;;;;;;;;;;;;;;;;;5010887;28;1281;-64
2022/09/05 06:48:10;;;;;;;;;;;;;;;;;;5020524;28;1957;-64
2022/09/05 06:50:50;;;;;;;;;;;;;;;;;;5014430;28;1256;-64
2022/09/05 06:53:21;;;;;;;;;;;;;;;;;;5023010;28;1721;-64
2022/09/05 06:55:46;;;;;;;;;;;;;;;;;;5012168;28;1594;-64
2022/09/05 06:58:33;;;;;;;;;;;;;;;;;;5007039;28;1143;-64
2022/09/05 07:00:59;;;;;;;;;;;;;;;;;;5018245;28;1599;-64
2022/09/05 07:03:27;;;;;;;;;;;;;;;;;;5001336;28;1392;-64
2022/09/05 07:05:58;;;;;;;;;;;;;;;;;;5000792;28;1253;-64
2022/09/05 07:08:28;;;;;;;;;;;;;;;;;;5019125;28;1898;-64
2022/09/05 07:10:58;;;;;;;;;;;;;;;;;;5020769;28;1296;-63
2022/09/05 07:13:29;;;;;;;;;;;;;;;;;;5020908;28;818;-64
2022/09/05 07:15:59;;;;;;;;;;;;;;;;;;5022278;28;1474;-64
2022/09/05 07:18:30;;;;;;;;;;;;;;;;;;5022255;28;1246;-64
2022/09/05 07:21:01;;;;;;;;;;;;;;;;;;5025665;28;1402;-64
2022/09/05 07:23:44;;;;;;;;;;;;;;;;;;5020662;28;1337;-64
2022/09/05 07:26:10;;;;;;;;;;;;;;;;;;5017275;28;1898;-64
2022/09/05 07:28:36;;;;;;;;;;;;;;;;;;5019541;28;1607;-63
2022/09/05 07:31:05;;;;;;;;;;;;;;;;;;5019653;28;1343;-64
2022/09/05 07:33:30;;;;;;;;;;;;;;;;;;5014651;28;1364;-64
2022/09/05 07:36:04;;;;;;;;;;;;;;;;;;5020341;28;1730;-65
2022/09/05 07:38:34;;;;;;;;;;;;;;;;;;5002458;28;1131;-64
2022/09/05 07:41:08;;;;;;;;;;;;;;;;;;5001053;28;1291;-64
2022/09/05 07:43:38;;;;;;;;;;;;;;;;;;5014300;28;1444;-64
2022/09/05 07:46:03;;;;;;;;;;;;;;;;;;5023086;28;1922;-64
2022/09/05 07:48:30;;;;;;;;;;;;;;;;;;5021122;28;1308;-64
2022/09/05 07:50:57;;;;;;;;;;;;;;;;;;5021673;28;1673;-64
2022/09/05 07:53:23;;;;;;;;;;;;;;;;;;5021426;28;1238;-64
2022/09/05 07:55:52;;;;;;;;;;;;;;;;;;5023185;28;1329;-64
2022/09/05 07:58:20;;;;;;;;;;;;;;;;;;5023180;28;1380;-64
2022/09/05 08:00:50;;;;;;;;;;;;;;;;;;5022806;28;1346;-64
2022/09/05 08:03:15;;;;;;;;;;;;;;;;;;5024037;28;1285;-64
2022/09/05 08:05:46;;;;;;;;;;;;;;;;;;5024628;28;981;-64
2022/09/05 08:08:14;;;;;;;;;;;;;;;;;;5022500;28;1894;-65
2022/09/05 08:10:50;;;;;;;;;;;;;;;;;;5023980;28;1323;-65
2022/09/05 08:13:18;;;;;;;;;;;;;;;;;;5021563;28;1310;-64
2022/09/05 08:15:49;;;;;;;;;;;;;;;;;;5021941;28;1293;-65
2022/09/05 08:18:27;;;;;;;;;;;;;;;;;;5023406;28;1196;-64
2022/09/05 08:21:09;;;;;;;;;;;;;;;;;;5021805;28;1653;-65
2022/09/05 08:23:45;;;;;;;;;;;;;;;;;;5023125;28;1789;-65
2022/09/05 08:26:22;;;;;;;;;;;;;;;;;;5020946;28;1890;-65
2022/09/05 08:28:52;;;;;;;;;;;;;;;;;;5021880;28;1373;-65
2022/09/05 08:31:19;;;;;;;;;;;;;;;;;;5020800;28;1396;-64
2022/09/05 08:33:47;;;;;;;;;;;;;;;;;;5023617;28;1332;-64
2022/09/05 08:36:15;;;;;;;;;;;;;;;;;;5022138;28;1148;-65
2022/09/05 08:38:42;;;;;;;;;;;;;;;;;;5021108;28;1591;-65
2022/09/05 08:41:16;;;;;;;;;;;;;;;;;;5023089;28;1295;-65
2022/09/05 08:43:49;;;;;;;;;;;;;;;;;;5004440;28;1515;-65
2022/09/05 08:46:14;;;;;;;;;;;;;;;;;;5016126;28;1894;-65
2022/09/05 08:48:42;;;;;;;;;;;;;;;;;;5014547;28;1523;-64
2022/09/05 08:51:10;;;;;;;;;;;;;;;;;;5020771;28;1562;-65
2022/09/05 08:53:45;;;;;;;;;;;;;;;;;;5022981;28;1072;-65
2022/09/05 08:56:14;;;;;;;;;;;;;;;;;;5022170;28;791;-65
2022/09/05 08:58:45;;;;;;;;;;;;;;;;;;5022206;28;1512;-65
2022/09/05 09:01:23;;;;;;;;;;;;;;;;;;5020910;28;1358;-65
2022/09/05 09:04:00;;;;;;;;;;;;;;;;;;5021257;28;1325;-65
2022/09/05 09:06:25;;;;;;;;;;;;;;;;;;5021767;28;1977;-64
2022/09/05 09:08:50;;;;;;;;;;;;;;;;;;5015794;28;1552;-65
2022/09/05 09:11:38;;;;;;;;;;;;;;;;;;5003560;28;1603;-65
2022/09/05 09:14:21;;;;;;;;;;;;;;;;;;5009267;28;1340;-65
2022/09/05 09:16:52;;;;;;;;;;;;;;;;;;5016700;28;1229;-65
2022/09/05 09:19:41;;;;;;;;;;;;;;;;;;5021880;28;1287;-64
2022/09/05 09:22:24;;;;;;;;;;;;;;;;;;5020305;28;1658;-65
2022/09/05 09:25:01;;;;;;;;;;;;;;;;;;5016087;28;1245;-65
2022/09/05 09:27:27;;;;;;;;;;;;;;;;;;5015087;28;1898;-65
2022/09/05 09:29:53;;;;;;;;;;;;;;;;;;5021041;28;1598;-64
2022/09/05 09:32:23;;;;;;;;;;;;;;;;;;5020008;28;1327;-65
2022/09/05 09:34:53;;;;;;;;;;;;;;;;;;5023128;28;1292;-65
2022/09/05 09:37:18;;;;;;;;;;;;;;;;;;5021425;28;1516;-64
2022/09/05 09:40:03;;;;;;;;;;;;;;;;;;5020301;28;1619;-65
2022/09/05 09:42:36;;;;;;;;;;;;;;;;;;5020542;28;1693;-64
2022/09/05 09:45:20;;;;;;;;;;;;;;;;;;5020191;28;1273;-64
2022/09/05 09:47:54;;;;;;;;;;;;;;;;;;5021626;28;1894;-65
2022/09/05 09:50:19;;;;;;;;;;;;;;;;;;5020730;28;1277;-65
2022/09/05 09:52:56;;;;;;;;;;;;;;;;;;5022133;28;1681;-64
2022/09/05 09:55:39;;;;;;;;;;;;;;;;;;5020720;28;1164;-64
2022/09/05 09:58:23;;;;;;;;;;;;;;;;;;5021601;28;1396;-64
2022/09/05 10:00:53;;;;;;;;;;;;;;;;;;5021111;28;1567;-64
2022/09/05 10:03:19;;;;;;;;;;;;;;;;;;5021391;28;1197;-64
2022/09/05 10:05:47;;;;;;;;;;;;;;;;;;5007958;28;1177;-64
2022/09/05 10:08:16;;;;;;;;;;;;;;;;;;5019893;28;1898;-64
2022/09/05 10:10:51;;;;;;;;;;;;;;;;;;5011727;28;1492;-65
2022/09/05 10:13:29;;;;;;;;;;;;;;;;;;5019912;28;1206;-64
2022/09/05 10:15:57;;;;;;;;;;;;;;;;;;5013718;28;1200;-64
2022/09/05 10:18:22;;;;;;;;;;;;;;;;;;5019484;28;1347;-64
2022/09/05 10:20:47;;;;;;;;;;;;;;;;;;5023722;28;1267;-64
2022/09/05 10:23:31;;;;;;;;;;;;;;;;;;5020789;28;1249;-64
2022/09/05 10:26:02;;;;;;;;;;;;;;;;;;5020971;28;972;-64
2022/09/05 10:28:46;;;;;;;;;;;;;;;;;;5021382;28;1907;-64
2022/09/05 10:31:11;;;;;;;;;;;;;;;;;;5020209;28;1551;-64
2022/09/05 10:33:40;;;;;;;;;;;;;;;;;;5008632;28;1530;-64
2022/09/05 10:36:15;;;;;;;;;;;;;;;;;;5020518;28;859;-64
2022/09/05 10:38:44;;;;;;;;;;;;;;;;;;5010142;28;1616;-64
2022/09/05 10:41:12;;;;;;;;;;;;;;;;;;5014334;28;1543;-64
2022/09/05 10:43:47;;;;;;;;;;;;;;;;;;5015617;28;1459;-64
2022/09/05 10:46:21;;;;;;;;;;;;;;;;;;5019202;28;1967;-63
2022/09/05 10:48:49;;;;;;;;;;;;;;;;;;5016339;28;1132;-64
2022/09/05 10:51:14;;;;;;;;;;;;;;;;;;5019850;28;1255;-64
2022/09/05 10:53:48;;;;;;;;;;;;;;;;;;5019283;28;1578;-64
2022/09/05 10:56:15;;;;;;;;;;;;;;;;;;5007326;28;1153;-64
2022/09/05 10:58:42;;;;;;;;;;;;;;;;;;5009291;28;1690;-64
2022/09/05 11:01:15;;;;;;;;;;;;;;;;;;5019679;28;1270;-64
2022/09/05 11:03:50;;;;;;;;;;;;;;;;;;5020050;28;1281;-64
2022/09/05 11:06:18;;;;;;;;;;;;;;;;;;5018302;28;1898;-64
2022/09/05 11:08:58;;;;;;;;;;;;;;;;;;5019864;28;1523;-64
2022/09/05 11:11:25;;;;;;;;;;;;;;;;;;5014703;28;1559;-64
2022/09/05 11:13:51;;;;;;;;;;;;;;;;;;5019124;28;1667;-64
2022/09/05 11:16:20;;;;;;;;;;;;;;;;;;5018464;28;1313;-64
2022/09/05 11:19:04;;;;;;;;;;;;;;;;;;5020080;28;1404;-64
2022/09/05 11:21:39;;;;;;;;;;;;;;;;;;5014832;28;1555;-64
2022/09/05 11:24:09;;;;;;;;;;;;;;;;;;5002647;28;1447;-64
2022/09/05 11:26:41;;;;;;;;;;;;;;;;;;5005285;28;1894;-64
2022/09/05 11:29:18;;;;;;;;;;;;;;;;;;5021269;28;1741;-64
2022/09/05 11:31:49;;;;;;;;;;;;;;;;;;5021261;28;1619;-64
2022/09/05 11:34:14;;;;;;;;;;;;;;;;;;5020461;28;1222;-64
2022/09/05 11:36:47;;;;;;;;;;;;;;;;;;5023011;28;1367;-64
2022/09/05 11:39:31;;;;;;;;;;;;;;;;;;5025778;28;1178;-64
2022/09/05 11:42:02;;;;;;;;;;;;;;;;;;5024011;28;1590;-64
2022/09/05 11:44:33;;;;;;;;;;;;;;;;;;5022516;28;1423;-64
2022/09/05 11:47:14;;;;;;;;;;;;;;;;;;5022257;28;1890;-64
2022/09/05 11:49:42;;;;;;;;;;;;;;;;;;5018982;28;1391;-64
2022/09/05 11:52:25;;;;;;;;;;;;;;;;;;5014786;28;1404;-64
2022/09/05 11:55:03;;;;;;;;;;;;;;;;;;5030432;28;1412;-64
2022/09/05 11:57:40;;;;;;;;;;;;;;;;;;5023139;28;1285;-64
2022/09/05 12:00:10;;;;;;;;;;;;;;;;;;5008166;28;1257;-64
2022/09/05 12:02:39;;;;;;;;;;;;;;;;;;5023577;28;1420;-64
2022/09/05 12:05:08;;;;;;;;;;;;;;;;;;5021677;28;1123;-64
2022/09/05 12:07:42;;;;;;;;;;;;;;;;;;5020641;28;1898;-64
2022/09/05 12:10:13;;;;;;;;;;;;;;;;;;5023581;28;1358;-64
2022/09/05 12:12:43;;;;;;;;;;;;;;;;;;5023203;28;1707;-64
2022/09/05 12:15:32;;;;;;;;;;;;;;;;;;5017930;28;1256;-64
2022/09/05 12:18:10;;;;;;;;;;;;;;;;;;5020013;28;1069;-64
2022/09/05 12:20:35;;;;;;;;;;;;;;;;;;5023691;28;1391;-64
2022/09/05 12:23:02;;;;;;;;;;;;;;;;;;5022771;28;1285;-64
2022/09/05 12:25:28;;;;;;;;;;;;;;;;;;5021919;28;1238;-64
2022/09/05 12:28:06;;;;;;;;;;;;;;;;;;5024523;28;1965;-64
2022/09/05 12:30:32;;;;;;;;;;;;;;;;;;5014759;28;1342;-64
2022/09/05 12:33:09;;;;;;;;;;;;;;;;;;5022093;28;1154;-64
2022/09/05 12:35:43;;;;;;;;;;;;;;;;;;5020724;28;1315;-64
2022/09/05 12:38:14;;;;;;;;;;;;;;;;;;5023233;28;1160;-64
2022/09/05 12:40:51;;;;;;;;;;;;;;;;;;5023035;28;1160;-64
2022/09/05 12:43:18;;;;;;;;;;;;;;;;;;5017908;28;1685;-64
2022/09/05 12:45:49;;;;;;;;;;;;;;;;;;5022969;28;1337;-64
2022/09/05 12:48:15;;;;;;;;;;;;;;;;;;5016278;28;1898;-64
2022/09/05 12:50:43;;;;;;;;;;;;;;;;;;5016808;28;1322;-64
2022/09/05 12:53:18;;;;;;;;;;;;;;;;;;5023088;28;859;-64
2022/09/05 12:55:46;;;;;;;;;;;;;;;;;;5021011;28;1551;-64
2022/09/05 12:58:28;;;;;;;;;;;;;;;;;;5021799;28;1329;-64
2022/09/05 13:01:03;;;;;;;;;;;;;;;;;;5021845;28;1419;-64
2022/09/05 13:03:29;;;;;;;;;;;;;;;;;;5014767;28;1265;-64
2022/09/05 13:06:13;;;;;;;;;;;;;;;;;;5022046;28;997;-64
2022/09/05 13:08:49;;;;;;;;;;;;;;;;;;5007554;28;1890;-64
2022/09/05 13:11:17;;;;;;;;;;;;;;;;;;5020760;28;1642;-64
2022/09/05 13:13:55;;;;;;;;;;;;;;;;;;5020804;28;1444;-64
2022/09/05 13:16:24;;;;;;;;;;;;;;;;;;5021213;28;1344;-64
2022/09/05 13:19:03;;;;;;;;;;;;;;;;;;5021937;28;1348;-64
2022/09/05 13:21:29;;;;;;;;;;;;;;;;;;5013813;28;1338;-64
2022/09/05 13:24:16;;;;;;;;;;;;;;;;;;5015689;28;1680;-64
2022/09/05 13:26:48;;;;;;;;;;;;;;;;;;5015867;28;1894;-64
2022/09/05 13:29:14;;;;;;;;;;;;;;;;;;5022409;28;1590;-64
2022/09/05 13:31:43;;;;;;;;;;;;;;;;;;5020086;28;1303;-64
2022/09/05 13:34:21;;;;;;;;;;;;;;;;;;5017845;28;1206;-64
2022/09/05 13:36:55;;;;;;;;;;;;;;;;;;5011833;28;1273;-64
2022/09/05 13:39:26;;;;;;;;;;;;;;;;;;5020623;28;1312;-64
2022/09/05 13:41:58;;;;;;;;;;;;;;;;;;5022233;28;1322;-64
2022/09/05 13:44:24;;;;;;;;;;;;;;;;;;5019641;28;1630;-64
2022/09/05 13:46:56;;;;;;;;;;;;;;;;;;5020941;28;1902;-64
2022/09/05 13:49:23;;;;;;;;;;;;;;;;;;5022384;28;1058;-64
2022/09/05 13:51:52;;;;;;;;;;;;;;;;;;5020562;28;1436;-64
2022/09/05 13:54:37;;;;;;;;;;;;;;;;;;5023397;28;1112;-64
2022/09/05 13:57:17;;;;;;;;;;;;;;;;;;5017514;28;1341;-64
2022/09/05 14:00:02;;;;;;;;;;;;;;;;;;5022399;28;1649;-64
2022/09/05 14:02:42;;;;;;;;;;;;;;;;;;5018937;28;1530;-64
2022/09/05 14:05:26;;;;;;;;;;;;;;;;;;5022831;28;1359;-64
2022/09/05 14:08:16;;;;;;;;;;;;;;;;;;5021242;28;1965;-64
2022/09/05 14:11:07;;;;;;;;;;;;;;;;;;5021508;28;1323;-64
2022/09/05 14:13:50;;;;;;;;;;;;;;;;;;5012549;28;1288;-64
2022/09/05 14:16:21;;;;;;;;;;;;;;;;;;5020402;28;1308;-64
2022/09/05 14:21:34;;;;;;;;;;;;;;;;;;5020659;28;1508;-64
2022/09/05 14:24:08;;;;;;;;;;;;;;;;;;5021595;28;1168;-64
2022/09/05 14:26:39;;;;;;;;;;;;;;;;;;5020036;28;1894;-64
2022/09/05 14:29:13;;;;;;;;;;;;;;;;;;5016674;28;1488;-64
2022/09/05 14:32:01;;;;;;;;;;;;;;;;;;5020626;28;1301;-64
2022/09/05 14:34:45;;;;;;;;;;;;;;;;;;5027983;28;1240;-64
2022/09/05 14:37:17;;;;;;;;;;;;;;;;;;5006943;28;1547;-64
2022/09/05 14:39:54;;;;;;;;;;;;;;;;;;5021283;28;1124;-64
2022/09/05 14:42:38;;;;;;;;;;;;;;;;;;5020873;28;1579;-64
2022/09/05 14:45:09;;;;;;;;;;;;;;;;;;5019942;28;1293;-64
2022/09/05 14:47:46;;;;;;;;;;;;;;;;;;5020002;28;1961;-64
2022/09/05 14:50:19;;;;;;;;;;;;;;;;;;5012311;28;1476;-64
2022/09/05 14:53:17;;;;;;;;;;;;;;;;;;5020048;28;1408;-64
2022/09/05 14:55:52;;;;;;;;;;;;;;;;;;4981372;28;1606;-65
2022/09/05 14:58:27;;;;;;;;;;;;;;;;;;5018690;28;1273;-64
2022/09/05 15:01:01;;;;;;;;;;;;;;;;;;5020436;28;1307;-64
2022/09/05 15:03:35;;;;;;;;;;;;;;;;;;5001665;28;1491;-64
2022/09/05 15:06:00;;;;;;;;;;;;;;;;;;5000781;28;854;-64
2022/09/05 15:08:28;;;;;;;;;;;;;;;;;;5007838;28;1935;-64
2022/09/05 15:10:55;;;;;;;;;;;;;;;;;;5019552;28;1555;-64
2022/09/05 15:13:22;;;;;;;;;;;;;;;;;;5020539;28;1380;-64
2022/09/05 15:15:55;;;;;;;;;;;;;;;;;;5019596;28;1327;-64
2022/09/05 15:18:25;;;;;;;;;;;;;;;;;;5019611;28;1365;-64
2022/09/05 15:20:52;;;;;;;;;;;;;;;;;;5018233;28;1428;-64
2022/09/05 15:23:17;;;;;;;;;;;;;;;;;;5020847;28;1389;-65
2022/09/05 15:25:44;;;;;;;;;;;;;;;;;;5018241;28;1499;-64
2022/09/05 15:28:16;;;;;;;;;;;;;;;;;;5020211;28;1959;-64
2022/09/05 15:30:53;;;;;;;;;;;;;;;;;;5017003;28;1614;-65
2022/09/05 15:33:18;;;;;;;;;;;;;;;;;;5022960;28;1233;-64
2022/09/05 15:35:43;;;;;;;;;;;;;;;;;;5020791;28;1618;-65
2022/09/05 15:38:27;;;;;;;;;;;;;;;;;;5019831;28;1631;-64
2022/09/05 15:41:01;;;;;;;;;;;;;;;;;;5012905;28;1611;-64
2022/09/05 15:43:27;;;;;;;;;;;;;;;;;;5028777;28;1656;-64
2022/09/05 15:45:58;;;;;;;;;;;;;;;;;;5018557;28;1571;-64
2022/09/05 15:48:24;;;;;;;;;;;;;;;;;;5011284;28;1898;-64
2022/09/05 15:50:51;;;;;;;;;;;;;;;;;;5020430;28;1319;-65
2022/09/05 15:53:21;;;;;;;;;;;;;;;;;;5019778;28;1579;-64
2022/09/05 15:55:47;;;;;;;;;;;;;;;;;;5018913;28;1745;-65
2022/09/05 15:58:13;;;;;;;;;;;;;;;;;;5014388;28;1387;-64
2022/09/05 16:00:41;;;;;;;;;;;;;;;;;;5018901;28;1366;-64
2022/09/05 16:03:18;;;;;;;;;;;;;;;;;;5015496;28;1166;-65
2022/09/05 16:06:01;;;;;;;;;;;;;;;;;;5014114;28;1579;-64
2022/09/05 16:08:46;;;;;;;;;;;;;;;;;;5012462;28;1960;-64
2022/09/05 16:11:23;;;;;;;;;;;;;;;;;;5021986;28;1672;-64
2022/09/05 16:13:51;;;;;;;;;;;;;;;;;;5017708;28;1320;-64
2022/09/05 16:16:16;;;;;;;;;;;;;;;;;;5021549;28;1261;-64
2022/09/05 16:18:44;;;;;;;;;;;;;;;;;;5023083;28;1136;-64
2022/09/05 16:21:10;;;;;;;;;;;;;;;;;;5004008;28;1491;-64
2022/09/05 16:23:55;;;;;;;;;;;;;;;;;;5008414;28;1618;-66
2022/09/05 16:26:27;;;;;;;;;;;;;;;;;;5021890;28;1197;-65
2022/09/05 16:28:56;;;;;;;;;;;;;;;;;;5023175;28;1622;-65
2022/09/05 16:31:21;;;;;;;;;;;;;;;;;;5025292;28;1443;-64
2022/09/05 16:33:47;;;;;;;;;;;;;;;;;;5028005;28;1618;-64
2022/09/05 16:36:17;;;;;;;;;;;;;;;;;;5022060;28;1226;-65
2022/09/05 16:38:46;;;;;;;;;;;;;;;;;;5023051;28;1420;-65
2022/09/05 16:41:15;;;;;;;;;;;;;;;;;;5013238;28;1467;-65
2022/09/05 16:43:42;;;;;;;;;;;;;;;;;;5024116;28;1021;-65
2022/09/05 16:46:13;;;;;;;;;;;;;;;;;;5021691;28;1599;-64
2022/09/05 16:48:51;;;;;;;;;;;;;;;;;;5008811;28;1952;-65
2022/09/05 16:53:59;;;;;;;;;;;;;;;;;;5126400;23;1991;-64
2022/09/05 16:56:33;;;;;;;;;;;;;;;;;;5013197;28;1298;-64
2022/09/05 16:59:05;;;;;;;;;;;;;;;;;;5022852;28;1148;-64
2022/09/05 17:01:36;;;;;;;;;;;;;;;;;;5021531;28;1332;-63
2022/09/05 17:04:04;;;;;;;;;;;;;;;;;;5021470;28;1329;-63
2022/09/05 17:06:50;;;;;;;;;;;;;;;;;;5021149;28;1963;-64
2022/09/05 17:09:23;;;;;;;;;;;;;;;;;;5022714;28;1164;-64
2022/09/05 17:11:49;;;;;;;;;;;;;;;;;;5021620;28;1508;-64
2022/09/05 17:14:17;;;;;;;;;;;;;;;;;;5022581;28;1133;-63
2022/09/05 17:16:42;;;;;;;;;;;;;;;;;;5020002;28;1627;-64
2022/09/05 17:19:12;;;;;;;;;;;;;;;;;;5021740;28;1318;-64
2022/09/05 17:21:39;;;;;;;;;;;;;;;;;;5021619;28;1460;-63
2022/09/05 17:24:06;;;;;;;;;;;;;;;;;;5021479;28;1433;-64
2022/09/05 17:26:31;;;;;;;;;;;;;;;;;;5021611;28;1949;-63
2022/09/05 17:28:58;;;;;;;;;;;;;;;;;;5021254;28;1623;-64
2022/09/05 17:31:39;;;;;;;;;;;;;;;;;;5012461;28;1484;-63
2022/09/05 17:34:11;;;;;;;;;;;;;;;;;;5022158;28;1192;-63
2022/09/05 17:36:38;;;;;;;;;;;;;;;;;;5021326;28;1480;-64
2022/09/05 17:39:06;;;;;;;;;;;;;;;;;;5021658;28;1568;-64
2022/09/05 17:41:49;;;;;;;;;;;;;;;;;;5021301;28;1326;-64
2022/09/05 17:44:16;;;;;;;;;;;;;;;;;;5021970;28;1109;-64
2022/09/05 17:46:45;;;;;;;;;;;;;;;;;;5020394;28;1894;-64
2022/09/05 17:49:10;;;;;;;;;;;;;;;;;;5004090;28;1264;-63